createdAt,value
2023-02-28T00:00:38.964Z,3.13
2023-02-28T00:03:06.324Z,3.10
2023-02-28T00:05:34.683Z,3.70
2023-02-28T00:08:01.527Z,3.03
2023-02-28T00:10:31.781Z,3.20
2023-02-28T00:13:05.587Z,3.50
2023-02-28T00:15:33.083Z,3.23
2023-02-28T00:18:00.340Z,3.07
2023-02-28T00:20:27.794Z,3.67
2023-02-28T00:22:55.049Z,3.27
2023-02-28T00:25:25.057Z,3.27
2023-02-28T00:27:52.299Z,3.07
2023-02-28T00:30:24.457Z,2.97
2023-02-28T00:32:52.237Z,3.57
2023-02-28T00:35:19.303Z,4.03
2023-02-28T00:37:46.074Z,4.30
2023-02-28T00:40:13.269Z,3.70
2023-02-28T00:42:41.304Z,4.13
2023-02-28T00:45:11.426Z,5.20
2023-02-28T00:47:38.998Z,5.90
2023-02-28T00:50:06.965Z,5.80
2023-02-28T00:52:33.885Z,4.37
2023-02-28T00:55:00.651Z,6.33
2023-02-28T00:57:27.928Z,4.87
2023-02-28T00:59:57.658Z,5.20
2023-02-28T01:02:25.007Z,4.67
2023-02-28T01:04:53.669Z,3.73
2023-02-28T01:07:20.623Z,3.43
2023-02-28T01:09:47.329Z,2.53
2023-02-28T01:12:14.057Z,3.93
2023-02-28T01:14:41.629Z,3.50
2023-02-28T01:17:08.675Z,3.10
2023-02-28T01:19:35.701Z,3.63
2023-02-28T01:22:07.023Z,3.90
2023-02-28T01:24:35.202Z,3.37
2023-02-28T01:27:02.327Z,3.60
2023-02-28T01:29:29.021Z,3.23
2023-02-28T01:31:55.849Z,3.20
2023-02-28T01:34:22.812Z,3.13
2023-02-28T01:36:49.572Z,3.10
2023-02-28T01:39:16.273Z,3.90
2023-02-28T01:41:44.192Z,4.10
2023-02-28T01:44:48.450Z,3.93
2023-02-28T01:47:16.206Z,3.27
2023-02-28T01:49:43.696Z,3.77
2023-02-28T01:52:19.003Z,3.70
2023-02-28T01:54:52.016Z,3.60
2023-02-28T01:57:24.143Z,3.93
2023-02-28T02:00:00.312Z,3.87
2023-02-28T02:02:29.952Z,3.53
2023-02-28T02:05:05.973Z,3.50
2023-02-28T02:07:36.350Z,3.77
2023-02-28T02:10:28.457Z,4.10
2023-02-28T02:13:34.129Z,4.03
2023-02-28T02:16:19.420Z,4.27
2023-02-28T02:19:15.156Z,3.40
2023-02-28T02:21:47.767Z,3.50
2023-02-28T02:24:42.710Z,4.47
2023-02-28T02:27:27.070Z,3.57
2023-02-28T02:30:29.180Z,3.77
2023-02-28T02:33:26.109Z,4.53
2023-02-28T02:35:56.845Z,3.87
2023-02-28T02:39:01.705Z,3.77
2023-02-28T02:41:50.388Z,4.30
2023-02-28T02:44:41.217Z,4.40
2023-02-28T02:47:13.074Z,4.87
2023-02-28T02:49:45.398Z,4.40
2023-02-28T02:52:15.729Z,4.73
2023-02-28T02:54:46.852Z,4.70
2023-02-28T02:57:23.820Z,4.90
2023-02-28T02:59:53.796Z,4.67
2023-02-28T03:02:23.340Z,4.67
2023-02-28T03:04:55.103Z,5.20
2023-02-28T03:07:22.643Z,5.13
2023-02-28T03:09:54.775Z,5.20
2023-02-28T03:12:24.821Z,4.93
2023-02-28T03:14:58.348Z,5.50
2023-02-28T03:17:27.471Z,5.40
2023-02-28T03:19:58.300Z,5.87
2023-02-28T03:22:50.582Z,7.90
2023-02-28T03:25:23.160Z,8.77
2023-02-28T03:28:11.138Z,6.63
2023-02-28T03:31:00.688Z,6.93
2023-02-28T03:33:40.581Z,7.07
2023-02-28T03:36:20.760Z,8.90
2023-02-28T03:38:55.161Z,7.10
2023-02-28T03:41:25.099Z,6.40
2023-02-28T03:43:59.621Z,5.77
2023-02-28T03:46:31.893Z,6.03
2023-02-28T03:49:23.213Z,6.73
2023-02-28T03:51:52.216Z,5.90
2023-02-28T03:54:33.123Z,6.27
2023-02-28T03:57:28.660Z,6.13
2023-02-28T04:00:01.308Z,4.80
2023-02-28T04:02:28.837Z,4.53
2023-02-28T04:04:55.622Z,5.63
2023-02-28T04:07:22.497Z,5.73
2023-02-28T04:09:49.289Z,6.40
2023-02-28T04:12:16.027Z,6.43
2023-02-28T04:14:43.120Z,5.53
2023-02-28T04:17:10.439Z,5.70
2023-02-28T04:19:37.483Z,6.37
2023-02-28T04:22:04.225Z,6.77
2023-02-28T04:24:31.025Z,6.60
2023-02-28T04:26:59.231Z,5.47
2023-02-28T04:29:33.164Z,6.73
2023-02-28T04:32:01.883Z,6.47
2023-02-28T04:34:30.776Z,6.50
2023-02-28T04:37:12.401Z,7.17
2023-02-28T04:39:41.495Z,6.93
2023-02-28T04:42:08.644Z,7.63
2023-02-28T04:44:35.360Z,8.47
2023-02-28T04:47:02.160Z,8.07
2023-02-28T04:49:29.262Z,7.50
2023-02-28T04:51:56.791Z,7.40
2023-02-28T04:54:24.317Z,6.77
2023-02-28T04:56:51.456Z,7.60
2023-02-28T04:59:18.513Z,7.20
2023-02-28T05:01:50.437Z,8.33
2023-02-28T05:04:17.590Z,7.97
2023-02-28T05:06:44.567Z,7.77
2023-02-28T05:09:14.422Z,9.37
2023-02-28T05:11:41.710Z,9.77
2023-02-28T05:14:13.612Z,9.80
2023-02-28T05:16:40.453Z,9.37
2023-02-28T05:19:07.327Z,10.70
2023-02-28T05:21:37.364Z,9.87
2023-02-28T05:24:07.380Z,10.23
2023-02-28T05:26:42.999Z,10.70
2023-02-28T05:29:10.449Z,12.47
2023-02-28T05:31:37.821Z,11.57
2023-02-28T05:34:07.471Z,10.17
2023-02-28T05:36:34.496Z,10.37
2023-02-28T05:39:01.236Z,12.17
2023-02-28T05:41:28.575Z,11.17
2023-02-28T05:43:55.980Z,10.60
2023-02-28T05:46:22.763Z,10.60
2023-02-28T05:48:50.346Z,10.30
2023-02-28T05:51:18.069Z,11.03
2023-02-28T05:53:45.623Z,10.83
2023-02-28T05:56:12.875Z,10.67
2023-02-28T05:58:39.730Z,10.00
2023-02-28T06:01:23.790Z,10.20
2023-02-28T06:03:50.610Z,11.00
2023-02-28T06:06:17.498Z,2.40
2023-02-28T06:08:45.884Z,9.53
2023-02-28T06:11:12.682Z,12.63
2023-02-28T06:13:40.081Z,12.23
2023-02-28T06:16:08.294Z,11.03
2023-02-28T06:18:35.051Z,11.40
2023-02-28T06:21:01.808Z,11.67
2023-02-28T06:23:28.581Z,10.50
2023-02-28T06:25:59.438Z,10.67
2023-02-28T06:28:26.880Z,9.93
2023-02-28T06:30:53.784Z,10.80
2023-02-28T06:33:20.624Z,11.07
2023-02-28T06:35:53.793Z,11.43
2023-02-28T06:38:20.564Z,11.47
2023-02-28T06:40:57.998Z,10.97
2023-02-28T06:43:25.890Z,9.93
2023-02-28T06:45:56.821Z,11.27
2023-02-28T06:48:24.162Z,10.73
2023-02-28T06:50:51.238Z,11.87
2023-02-28T06:53:17.973Z,11.77
2023-02-28T06:55:45.349Z,11.73
2023-02-28T06:58:20.848Z,11.47
2023-02-28T07:00:54.337Z,9.30
2023-02-28T07:03:21.257Z,11.93
2023-02-28T07:05:47.958Z,9.43
2023-02-28T07:08:15.453Z,15.40
2023-02-28T07:10:42.435Z,9.23
2023-02-28T07:13:10.244Z,8.07
2023-02-28T07:15:41.185Z,13.90
2023-02-28T07:18:09.200Z,15.87
2023-02-28T07:20:36.387Z,15.03
2023-02-28T07:23:03.140Z,12.57
2023-02-28T07:25:30.760Z,15.00
2023-02-28T07:27:58.162Z,12.07
2023-02-28T07:30:25.002Z,12.30
2023-02-28T07:32:51.673Z,12.93
2023-02-28T07:35:18.533Z,12.47
2023-02-28T07:37:45.958Z,14.60
2023-02-28T07:40:13.370Z,12.17
2023-02-28T07:42:42.433Z,10.90
2023-02-28T07:45:12.656Z,13.63
2023-02-28T07:47:40.326Z,10.67
2023-02-28T07:50:09.647Z,9.40
2023-02-28T07:52:37.787Z,12.53
2023-02-28T07:55:06.375Z,5.37
2023-02-28T07:57:36.408Z,13.10
2023-02-28T08:00:07.846Z,7.57
2023-02-28T08:02:38.373Z,9.67
2023-02-28T08:05:06.449Z,7.97
2023-02-28T08:07:34.373Z,9.47
2023-02-28T08:10:01.455Z,13.07
2023-02-28T08:12:28.256Z,8.80
2023-02-28T08:14:55.048Z,11.77
2023-02-28T08:17:21.801Z,12.53
2023-02-28T08:19:48.568Z,12.97
2023-02-28T08:22:16.317Z,13.80
2023-02-28T08:24:44.555Z,13.37
2023-02-28T08:27:11.901Z,12.57
2023-02-28T08:29:40.271Z,12.83
2023-02-28T08:32:17.368Z,14.43
2023-02-28T08:34:50.769Z,12.33
2023-02-28T08:37:18.015Z,15.27
2023-02-28T08:39:44.910Z,14.43
2023-02-28T08:42:11.737Z,12.67
2023-02-28T08:44:38.744Z,13.70
2023-02-28T08:47:05.696Z,10.80
2023-02-28T08:49:33.435Z,13.93
2023-02-28T08:52:00.197Z,6.73
2023-02-28T08:54:27.342Z,13.77
2023-02-28T08:56:54.084Z,13.83
2023-02-28T08:59:20.796Z,14.40
2023-02-28T09:01:48.398Z,14.33
2023-02-28T09:04:18.421Z,15.17
2023-02-28T09:06:47.162Z,14.20
2023-02-28T09:09:13.934Z,15.03
2023-02-28T09:11:40.749Z,12.80
2023-02-28T09:14:07.470Z,13.23
2023-02-28T09:16:35.281Z,10.87
2023-02-28T09:19:02.888Z,13.43
2023-02-28T09:21:30.400Z,11.57
2023-02-28T09:23:57.664Z,6.93
2023-02-28T09:26:30.245Z,10.20
2023-02-28T09:29:03.605Z,12.60
2023-02-28T09:31:30.492Z,13.37
2023-02-28T09:33:58.958Z,13.47
2023-02-28T09:36:41.505Z,13.07
2023-02-28T09:39:11.217Z,14.10
2023-02-28T09:41:48.553Z,13.53
2023-02-28T09:44:33.133Z,14.20
2023-02-28T09:47:19.755Z,13.17
2023-02-28T09:49:48.828Z,13.47
2023-02-28T09:52:22.550Z,12.97
2023-02-28T09:54:49.431Z,12.67
2023-02-28T09:57:30.689Z,7.50
2023-02-28T10:00:13.648Z,11.33
2023-02-28T10:03:02.586Z,13.33
2023-02-28T10:05:37.826Z,10.83
2023-02-28T10:08:09.308Z,13.03
2023-02-28T10:10:39.643Z,12.87
2023-02-28T10:13:19.020Z,13.53
2023-02-28T10:15:49.824Z,12.77
2023-02-28T10:18:25.594Z,14.50
2023-02-28T10:20:53.722Z,13.73
2023-02-28T10:23:35.919Z,12.63
2023-02-28T10:26:13.971Z,8.07
2023-02-28T10:28:41.331Z,10.93
2023-02-28T10:31:15.739Z,8.60
2023-02-28T10:33:42.622Z,9.77
2023-02-28T10:36:16.164Z,13.83
2023-02-28T10:38:43.436Z,15.67
2023-02-28T10:41:13.698Z,8.83
2023-02-28T10:43:42.905Z,11.10
2023-02-28T10:46:09.861Z,5.03
2023-02-28T10:48:46.976Z,9.90
2023-02-28T10:51:16.324Z,12.50
2023-02-28T10:54:02.424Z,11.90
2023-02-28T10:56:31.534Z,12.20
2023-02-28T10:59:02.338Z,10.83
2023-02-28T11:01:46.432Z,12.97
2023-02-28T11:04:34.207Z,11.53
2023-02-28T11:07:04.849Z,9.47
2023-02-28T11:09:39.701Z,12.17
2023-02-28T11:12:22.933Z,8.67
2023-02-28T11:15:00.963Z,9.40
2023-02-28T11:17:31.725Z,11.13
2023-02-28T11:20:04.508Z,8.00
2023-02-28T11:22:36.981Z,8.43
2023-02-28T11:25:11.115Z,13.00
2023-02-28T11:27:38.476Z,13.80
2023-02-28T11:30:23.558Z,14.00
2023-02-28T11:32:51.162Z,12.83
2023-02-28T11:35:39.526Z,12.83
2023-02-28T11:38:14.004Z,12.63
2023-02-28T11:40:54.861Z,11.30
2023-02-28T11:43:42.157Z,13.07
2023-02-28T11:46:28.408Z,13.93
2023-02-28T11:49:14.638Z,11.13
2023-02-28T11:52:07.446Z,12.90
2023-02-28T11:55:03.485Z,13.20
2023-02-28T11:57:50.599Z,11.57
2023-02-28T12:00:29.637Z,12.13
2023-02-28T12:03:07.800Z,11.97
2023-02-28T12:06:06.436Z,12.23
2023-02-28T12:08:48.836Z,12.57
2023-02-28T12:11:18.845Z,12.17
2023-02-28T12:14:07.500Z,12.63
2023-02-28T12:16:57.671Z,10.93
2023-02-28T12:19:34.119Z,10.60
2023-02-28T12:22:14.583Z,10.23
2023-02-28T12:24:53.569Z,7.80
2023-02-28T12:27:25.919Z,9.20
2023-02-28T12:29:56.281Z,11.07
2023-02-28T12:32:31.063Z,10.47
2023-02-28T12:35:15.954Z,10.13
2023-02-28T12:37:44.026Z,11.73
2023-02-28T12:40:16.157Z,11.83
2023-02-28T12:43:11.535Z,11.10
2023-02-28T12:45:53.123Z,12.20
2023-02-28T12:48:38.683Z,11.87
2023-02-28T12:51:07.970Z,9.80
2023-02-28T12:53:59.182Z,10.77
2023-02-28T12:56:34.390Z,12.77
2023-02-28T12:59:13.236Z,12.17
2023-02-28T13:01:39.995Z,12.03
2023-02-28T13:04:31.707Z,12.63
2023-02-28T13:07:29.049Z,12.33
2023-02-28T13:10:01.289Z,12.20
2023-02-28T13:12:28.733Z,12.50
2023-02-28T13:15:12.424Z,14.07
2023-02-28T13:17:42.526Z,15.10
2023-02-28T13:20:21.695Z,13.23
2023-02-28T13:22:52.107Z,15.20
2023-02-28T13:25:34.828Z,12.77
2023-02-28T13:28:05.588Z,13.40
2023-02-28T13:30:58.323Z,13.90
2023-02-28T13:33:27.836Z,15.47
2023-02-28T13:36:17.172Z,15.23
2023-02-28T13:38:56.468Z,15.43
2023-02-28T13:41:32.531Z,14.13
2023-02-28T13:44:13.489Z,12.80
2023-02-28T13:46:49.972Z,11.93
2023-02-28T13:49:34.916Z,12.97
2023-02-28T13:52:07.987Z,13.00
2023-02-28T13:54:46.873Z,13.00
2023-02-28T13:57:19.925Z,13.30
2023-02-28T14:00:02.331Z,14.43
2023-02-28T14:03:25.219Z,12.93
2023-02-28T14:06:28.104Z,9.67
2023-02-28T14:09:05.244Z,13.07
2023-02-28T14:11:38.557Z,13.27
2023-02-28T14:14:07.853Z,14.70
2023-02-28T14:16:40.874Z,13.33
2023-02-28T14:19:20.445Z,13.90
2023-02-28T14:22:16.378Z,12.40
2023-02-28T14:24:43.061Z,13.90
2023-02-28T14:27:38.924Z,13.90
2023-02-28T14:30:16.008Z,11.20
2023-02-28T14:32:47.368Z,12.20
2023-02-28T14:35:39.379Z,14.33
2023-02-28T14:38:14.908Z,10.73
2023-02-28T14:40:42.054Z,16.60
2023-02-28T14:43:27.988Z,19.57
2023-02-28T14:46:05.455Z,14.80
2023-02-28T14:48:32.603Z,20.23
2023-02-28T14:51:02.037Z,15.87
2023-02-28T14:53:31.430Z,15.07
2023-02-28T14:55:58.219Z,14.67
2023-02-28T14:58:31.650Z,10.80
2023-02-28T15:01:05.519Z,15.43
2023-02-28T15:03:36.897Z,14.23
2023-02-28T15:06:19.118Z,13.63
2023-02-28T15:08:46.469Z,13.27
2023-02-28T15:11:28.899Z,15.27
2023-02-28T15:13:59.076Z,10.83
2023-02-28T15:16:39.669Z,13.63
2023-02-28T15:19:16.143Z,13.80
2023-02-28T15:21:48.393Z,13.27
2023-02-28T15:24:24.612Z,15.00
2023-02-28T15:26:56.343Z,15.07
2023-02-28T15:29:25.956Z,15.67
2023-02-28T15:31:58.506Z,15.13
2023-02-28T15:34:44.559Z,16.60
2023-02-28T15:37:37.476Z,16.63
2023-02-28T15:40:16.708Z,14.83
2023-02-28T15:42:47.055Z,19.13
2023-02-28T15:45:38.456Z,26.53
2023-02-28T15:48:14.642Z,28.13
2023-02-28T15:50:41.848Z,33.63
2023-02-28T15:53:22.409Z,17.90
2023-02-28T15:56:06.141Z,16.37
2023-02-28T15:58:36.310Z,15.53
2023-02-28T16:01:09.166Z,29.20
2023-02-28T16:03:47.156Z,16.67
2023-02-28T16:06:23.326Z,15.33
2023-02-28T16:08:52.537Z,15.03
2023-02-28T16:11:21.491Z,17.37
2023-02-28T16:13:49.248Z,15.27
2023-02-28T16:16:22.561Z,14.47
2023-02-28T16:18:50.013Z,14.20
2023-02-28T16:21:17.187Z,14.27
2023-02-28T16:23:44.084Z,14.43
2023-02-28T16:26:21.609Z,14.60
2023-02-28T16:28:49.160Z,13.77
2023-02-28T16:31:17.608Z,14.57
2023-02-28T16:33:46.401Z,14.00
2023-02-28T16:36:18.898Z,15.47
2023-02-28T16:38:46.608Z,16.30
2023-02-28T16:41:19.975Z,15.20
2023-02-28T16:43:50.042Z,15.60
2023-02-28T16:46:18.348Z,16.30
2023-02-28T16:48:46.450Z,15.67
2023-02-28T16:51:14.854Z,15.23
2023-02-28T16:53:42.222Z,14.97
2023-02-28T16:56:23.582Z,16.33
2023-02-28T16:58:52.068Z,16.03
2023-02-28T17:01:22.992Z,16.30
2023-02-28T17:03:50.715Z,16.63
2023-02-28T17:06:22.978Z,16.13
2023-02-28T17:08:53.271Z,16.90
2023-02-28T17:11:20.498Z,16.77
2023-02-28T17:13:47.889Z,15.53
2023-02-28T17:16:32.744Z,16.93
2023-02-28T17:19:02.746Z,15.90
2023-02-28T17:21:30.300Z,15.67
2023-02-28T17:23:57.300Z,16.17
2023-02-28T17:26:25.734Z,17.03
2023-02-28T17:28:56.740Z,17.60
2023-02-28T17:31:24.960Z,18.70
2023-02-28T17:33:52.533Z,19.40
2023-02-28T17:36:26.795Z,18.30
2023-02-28T17:38:56.175Z,17.17
2023-02-28T17:41:23.589Z,16.63
2023-02-28T17:43:52.230Z,16.20
2023-02-28T17:46:22.272Z,16.77
2023-02-28T17:48:49.958Z,17.83
2023-02-28T17:51:18.164Z,18.10
2023-02-28T17:53:45.440Z,21.40
2023-02-28T17:56:24.362Z,18.17
2023-02-28T17:58:55.281Z,16.70
2023-02-28T18:01:23.899Z,17.20
2023-02-28T18:03:50.957Z,15.63
2023-02-28T18:06:22.780Z,17.63
2023-02-28T18:08:52.639Z,18.40
2023-02-28T18:11:21.379Z,17.67
2023-02-28T18:13:50.289Z,17.63
2023-02-28T18:16:18.907Z,17.67
2023-02-28T18:18:46.280Z,17.03
2023-02-28T18:21:15.345Z,18.43
2023-02-28T18:23:48.579Z,19.70
2023-02-28T18:26:17.713Z,19.50
2023-02-28T18:28:45.463Z,18.30
2023-02-28T18:31:16.407Z,19.73
2023-02-28T18:33:44.870Z,20.87
2023-02-28T18:36:11.808Z,18.93
2023-02-28T18:38:39.924Z,18.80
2023-02-28T18:41:08.152Z,19.73
2023-02-28T18:43:39.260Z,21.13
2023-02-28T18:46:09.448Z,19.77
2023-02-28T18:48:38.847Z,19.83
2023-02-28T18:51:18.649Z,19.40
2023-02-28T18:53:46.268Z,21.13
2023-02-28T18:56:16.821Z,19.40
2023-02-28T18:58:43.770Z,23.43
2023-02-28T19:01:30.987Z,22.13
2023-02-28T19:04:00.604Z,23.67
2023-02-28T19:06:29.785Z,21.97
2023-02-28T19:08:58.343Z,23.23
2023-02-28T19:11:26.061Z,22.50
2023-02-28T19:13:53.501Z,22.57
2023-02-28T19:16:21.836Z,21.63
2023-02-28T19:18:49.534Z,22.90
2023-02-28T19:21:18.119Z,22.77
2023-02-28T19:23:45.198Z,22.40
2023-02-28T19:26:18.187Z,22.93
2023-02-28T19:28:45.096Z,19.47
2023-02-28T19:31:13.913Z,20.27
2023-02-28T19:33:41.637Z,21.07
2023-02-28T19:36:11.263Z,20.23
2023-02-28T19:38:39.797Z,20.83
2023-02-28T19:41:09.004Z,21.97
2023-02-28T19:43:36.062Z,21.67
2023-02-28T19:46:03.196Z,23.13
2023-02-28T19:48:30.100Z,24.30
2023-02-28T19:51:06.101Z,22.67
2023-02-28T19:53:34.600Z,22.67
2023-02-28T19:56:01.713Z,23.40
2023-02-28T19:58:28.689Z,24.07
2023-02-28T20:00:55.532Z,25.47
2023-02-28T20:03:24.002Z,23.37
2023-02-28T20:06:01.358Z,24.33
2023-02-28T20:08:28.750Z,23.90
2023-02-28T20:10:55.524Z,23.20
2023-02-28T20:13:28.137Z,22.80
2023-02-28T20:15:55.663Z,23.50
2023-02-28T20:18:22.575Z,23.80
2023-02-28T20:20:49.537Z,22.07
2023-02-28T20:23:16.444Z,22.63
2023-02-28T20:25:43.334Z,23.93
2023-02-28T20:28:10.449Z,23.57
2023-02-28T20:30:39.562Z,23.97
2023-02-28T20:33:06.374Z,23.70
2023-02-28T20:35:34.023Z,23.30
2023-02-28T20:38:00.767Z,22.60
2023-02-28T20:40:27.515Z,22.20
2023-02-28T20:42:55.440Z,24.03
2023-02-28T20:45:22.324Z,23.17
2023-02-28T20:47:50.831Z,24.20
2023-02-28T20:50:18.020Z,22.43
2023-02-28T20:52:44.922Z,23.47
2023-02-28T20:55:13.016Z,23.13
2023-02-28T20:57:40.626Z,21.93
2023-02-28T21:00:09.633Z,23.60
2023-02-28T21:02:37.197Z,22.93
2023-02-28T21:05:04.882Z,22.70
2023-02-28T21:07:31.809Z,22.47
2023-02-28T21:09:58.552Z,22.63
2023-02-28T21:12:25.741Z,22.97
2023-02-28T21:14:52.523Z,22.17
2023-02-28T21:17:19.662Z,20.80
2023-02-28T21:19:46.473Z,21.20
2023-02-28T21:22:13.965Z,20.43
2023-02-28T21:24:41.256Z,20.33
2023-02-28T21:27:08.173Z,17.50
2023-02-28T21:29:35.098Z,18.03
2023-02-28T21:32:02.555Z,17.60
2023-02-28T21:34:29.298Z,18.13
2023-02-28T21:36:56.126Z,16.63
2023-02-28T21:39:26.094Z,16.17
2023-02-28T21:41:53.724Z,17.93
2023-02-28T21:44:22.636Z,17.43
2023-02-28T21:46:56.976Z,17.57
2023-02-28T21:49:25.208Z,16.97
2023-02-28T21:51:52.432Z,17.23
2023-02-28T21:54:19.274Z,16.27
2023-02-28T21:56:46.184Z,16.80
2023-02-28T21:59:12.949Z,16.87
2023-02-28T22:01:43.574Z,15.57
2023-02-28T22:04:21.469Z,17.00
2023-02-28T22:06:59.276Z,15.00
2023-02-28T22:09:27.251Z,15.60
2023-02-28T22:11:55.376Z,15.20
2023-02-28T22:14:22.871Z,15.67
2023-02-28T22:16:52.702Z,14.77
2023-02-28T22:19:21.329Z,15.23
2023-02-28T22:21:48.708Z,15.20
2023-02-28T22:24:17.863Z,16.17
2023-02-28T22:26:45.057Z,16.10
2023-02-28T22:29:11.790Z,14.67
2023-02-28T22:31:38.760Z,16.00
2023-02-28T22:34:08.867Z,14.77
2023-02-28T22:36:36.189Z,15.60
2023-02-28T22:39:04.672Z,14.80
2023-02-28T22:41:31.948Z,14.60
2023-02-28T22:44:02.208Z,14.63
2023-02-28T22:46:31.056Z,15.20
2023-02-28T22:49:01.642Z,13.80
2023-02-28T22:51:29.540Z,14.40
2023-02-28T22:53:58.444Z,14.20
2023-02-28T22:56:28.278Z,15.10
2023-02-28T22:58:57.718Z,15.07
2023-02-28T23:01:26.941Z,15.73
2023-02-28T23:03:54.200Z,15.63
2023-02-28T23:06:29.121Z,14.90
2023-02-28T23:08:59.231Z,13.90
2023-02-28T23:11:30.372Z,14.50
2023-02-28T23:14:00.747Z,14.60
2023-02-28T23:16:30.712Z,14.73
2023-02-28T23:19:00.130Z,13.73
2023-02-28T23:21:27.663Z,14.40
2023-02-28T23:23:54.819Z,15.40
2023-02-28T23:26:21.954Z,14.77
2023-02-28T23:28:49.017Z,15.20
2023-02-28T23:31:16.183Z,15.57
2023-02-28T23:33:43.002Z,14.53
2023-02-28T23:36:12.702Z,13.07
2023-02-28T23:38:41.022Z,14.97
2023-02-28T23:41:12.270Z,14.47
2023-02-28T23:43:41.028Z,15.87
2023-02-28T23:46:09.597Z,15.37
2023-02-28T23:48:36.838Z,14.47
2023-02-28T23:51:09.631Z,16.30
2023-02-28T23:53:38.630Z,14.80
2023-02-28T23:56:07.311Z,15.10
2023-02-28T23:58:35.126Z,13.50
